Dewey, IL (61840)

7:40 AM CST on February 26, 2017 (GMT -0600)
Elmwood drive | | Change Station

Elev 860 ft 40.32 °N, 88.35 °W | Updated 42 seconds ago

Partly Cloudy
Partly Cloudy
27.9 °F
Feels Like 21 °F
N
6.0
Wind Variable Wind from SSE

Today
High -- | Low -- °F
--% Chance of Precip.
Yesterday
High -- | Low -- °F
Precip. -- in
Pressure 30.10 in
Visibility 10.0 miles
Clouds Scattered Clouds 11000 ft
Windchill 21 °F
Dew Point 17 °F
Humidity 63%
Rainfall 0.00 in
Snow Depth Not available.
6:30 AM 5:41 PM
Waning Crescent, 0% visible
METAR KTIP 261335Z AUTO 17010KT 10SM SCT110 M03/M07 A3010 RMK AO2 T10321070
Pressure 30.10 in
Visibility 10.0 miles
Clouds Scattered Clouds 11000 ft
Windchill 21 °F
Dew Point 17 °F
Humidity 63%
Rainfall 0.00 in
Snow Depth Not available.
6:30 AM 5:41 PM
Waning Crescent, 0% visible
METAR KTIP 261335Z AUTO 17010KT 10SM SCT110 M03/M07 A3010 RMK AO2 T10321070

Get Your Daily Forecast Email!

Thanks for signing up!

Be on the lookout for a verification email in your inbox.

You'll start receiving the daily forecast at 8 AM.

×

10-Day Weather Forecast

Almanac

Astronomy

Feb. 26, 2017 Rise Set
Actual Time
Civil Twilight
Nautical Twilight
Astronomical Twilight
Moon
Length of Visible Light
Length of Day
Tomorrow will be .
, % of the Moon is Illuminated

Today's Extremes

State Highs State Lows

Community

WunderPhotos

Upload Photos

1,962,540 photos uploaded!

WunderBlog® & News

Nearby

Air Quality

  Air Quality AQ Index Pollutant
Not available.

Snow Depth

Station Depth Elevation

Earthquake Activity

City Distance Mag. Time & Date
Minimum magnitude displayed is 2.5.

Coastal Water Temperatures

Place Temperature

Stations

Nearby Weather Stations

Station Location Temp. Windchill Dew Point Humidity Wind Precip. Elev Updated Type
                   

Watches & Warnings

There are currently no watches in effect.